Time;durP1;ratioP1;P1;durP2;ratioP2;P2;SDS_P1;SDS_P2;PMS_P1;PMS_P2;Temp;Humidity;BMP_temperature;BMP_pressure;BME280_temperature;BME280_humidity;BME280_pressure;Samples;Min_cycle;Max_cycle;Signal;HPM_P1;HPM_P2
2022/05/19 00:08:54;2061773.00;6.87;3751.95;118804.00;0.40;206.02;;;;;22.50;1.00;;;;;;2275043;61;1313;-89
2022/05/19 00:11:28;1438367.00;4.79;2527.67;131849.00;0.44;228.52;;;;;22.20;1.00;;;;;;2273176;61;1992;-89
2022/05/19 00:16:28;1849516.00;6.17;3319.77;132297.00;0.44;229.29;;;;;22.10;1.00;;;;;;2278286;61;1238;-87
2022/05/19 00:19:01;565529.00;1.89;974.74;76718.00;0.26;133.37;;;;;22.30;1.00;;;;;;2276338;61;1727;-89
2022/05/19 00:29:04;429598.00;1.43;740.69;0.00;0.00;0.62;;;;;22.20;1.00;;;;;;2278262;61;1666;-90
2022/05/19 00:31:32;278356.00;0.93;480.71;0.00;0.00;0.62;;;;;22.10;1.00;;;;;;2276413;61;1930;-89
2022/05/19 00:34:07;242612.00;0.81;419.24;0.00;0.00;0.62;;;;;22.00;1.00;;;;;;2276340;61;1548;-88
2022/05/19 00:39:08;862003.00;2.87;1489.48;0.00;0.00;0.62;;;;;21.80;1.00;;;;;;2273766;61;1416;-87
2022/05/19 00:44:18;1327592.00;4.43;2322.69;0.00;0.00;0.62;;;;;21.70;1.00;;;;;;2277739;61;1396;-87
2022/05/19 00:49:25;1398879.00;4.66;2454.24;31786.00;0.11;55.67;;;;;21.50;1.00;;;;;;2328566;40;3664;-87
2022/05/19 00:51:58;191410.00;0.64;331.14;0.00;0.00;0.62;;;;;21.40;1.00;;;;;;2293679;55;3741;-87
2022/05/19 00:54:36;246254.00;0.82;425.51;0.00;0.00;0.62;;;;;21.50;1.00;;;;;;2316739;55;3740;-87
2022/05/19 00:57:11;286957.00;0.96;495.50;0.00;0.00;0.62;;;;;21.50;1.00;;;;;;2357661;55;3709;-88
2022/05/19 00:59:49;439245.00;1.46;757.28;0.00;0.00;0.62;;;;;21.30;1.00;;;;;;2276395;61;1667;-88
2022/05/19 01:07:25;721226.00;2.40;1244.07;0.00;0.00;0.62;;;;;21.20;1.00;;;;;;2314283;40;3549;-88
2022/05/19 01:09:56;138157.00;0.46;239.39;0.00;0.00;0.62;;;;;21.30;1.00;;;;;;2281146;55;3755;-88
2022/05/19 01:12:30;192499.00;0.64;333.01;0.00;0.00;0.62;;;;;21.00;1.00;;;;;;2276291;61;1921;-86
2022/05/19 01:17:35;617811.00;2.06;1064.98;43619.00;0.15;76.15;;;;;21.10;1.00;;;;;;2274006;61;1236;-86
2022/05/19 01:20:11;88998.00;0.30;154.58;0.00;0.00;0.62;;;;;21.10;1.00;;;;;;2303916;39;3582;-89
2022/05/19 01:22:53;372436.00;1.24;642.42;0.00;0.00;0.62;;;;;21.10;1.00;;;;;;2280227;61;1892;-89
2022/05/19 01:25:43;328515.00;1.10;566.93;0.00;0.00;0.62;;;;;21.20;1.00;;;;;;2280042;61;1556;-89
2022/05/19 01:28:25;;;;;;;;;;;;;;;;;;;;;
2022/05/19 01:31:04;172779.00;0.58;299.05;0.00;0.00;0.62;;;;;21.10;1.00;;;;;;2280179;61;1171;-89
2022/05/19 01:33:39;822783.00;2.74;1420.89;3535.00;0.01;6.75;;;;;21.10;1.00;;;;;;2280234;61;1922;-90
2022/05/19 01:36:11;208500.00;0.69;360.55;0.00;0.00;0.62;;;;;21.10;1.00;;;;;;2280276;61;1659;-89
2022/05/19 01:53:52;2266836.00;7.56;4187.40;105523.00;0.35;183.10;;;;;20.80;1.00;;;;;;2273382;61;1957;-88
2022/05/19 01:56:36;504254.00;1.68;869.15;60515.00;0.20;105.37;;;;;20.80;1.00;;;;;;2271966;61;1458;-91
2022/05/19 02:06:53;511356.00;1.70;881.38;0.00;0.00;0.62;;;;;20.70;1.00;;;;;;2273728;61;1400;-88
2022/05/19 02:09:32;266488.00;0.89;460.31;37995.00;0.13;66.42;;;;;20.70;1.00;;;;;;2272022;61;967;-85
2022/05/19 02:17:24;998102.00;3.33;1729.11;0.00;0.00;0.62;;;;;20.50;1.00;;;;;;2331880;40;3584;-87
2022/05/19 02:22:34;1086893.00;3.62;1887.00;0.00;0.00;0.62;;;;;20.50;1.00;;;;;;2265725;61;1435;-87
2022/05/19 02:32:56;2547038.00;8.49;4814.76;103624.00;0.35;179.83;;;;;20.70;1.00;;;;;;2277530;61;1954;-90
2022/05/19 02:45:48;2286109.00;7.62;4229.31;96975.00;0.32;168.35;;;;;20.40;1.00;;;;;;2268975;61;1538;-89
2022/05/19 02:48:49;882471.00;2.94;1525.35;66342.00;0.22;115.44;;;;;20.20;1.00;;;;;;2306022;55;3744;-88
2022/05/19 03:01:18;2215401.00;7.38;4076.40;177841.00;0.59;307.77;;;;;19.80;1.00;;;;;;2300612;39;3498;31
2022/05/19 03:14:15;2232511.00;7.44;4113.19;16477.00;0.05;29.17;;;;;19.60;1.00;;;;;;1943098;40;3441;-88
2022/05/19 03:29:26;255198.00;0.85;440.89;75512.00;0.25;131.28;;;;;19.90;1.00;;;;;;1639888;39;3216;-87
2022/05/19 03:49:52;1132459.00;3.77;1968.57;0.00;0.00;0.62;;;;;19.90;1.00;;;;;;2387633;39;3573;-89
2022/05/19 03:54:57;900106.00;3.00;1556.31;0.00;0.00;0.62;;;;;20.30;1.00;;;;;;2323899;55;3651;-89
2022/05/19 04:02:33;910931.00;3.04;1575.33;44347.00;0.15;77.41;;;;;20.20;1.00;;;;;;2305240;55;3794;-87
2022/05/19 04:12:37;1089219.00;3.63;1891.15;83924.00;0.28;145.81;;;;;20.40;1.00;;;;;;2320459;39;3475;-89
2022/05/19 04:22:57;1576103.00;5.25;2787.16;79082.00;0.26;137.45;;;;;20.50;1.00;;;;;;2324904;39;3521;-87
2022/05/19 04:53:31;1929254.00;6.43;3480.06;199542.00;0.67;345.14;;;;;21.00;1.00;;;;;;2437121;55;2077;-88
2022/05/19 04:58:50;964787.00;3.22;1670.20;0.00;0.00;0.62;;;;;21.10;1.00;;;;;;2375879;40;3441;-87
2022/05/19 05:04:08;;;;;;;;;;;;;;;;;;;;;
2022/05/19 05:40:02;912071.00;3.04;1577.33;78338.00;0.26;136.17;;;;;25.70;1.00;;;;;;2265052;61;1357;-89
2022/05/19 06:05:23;972358.00;3.24;1683.58;0.00;0.00;0.62;;;;;32.70;1.00;;;;;;2366801;40;3511;-88
2022/05/19 06:07:59;183669.00;0.61;317.81;0.00;0.00;0.62;;;;;32.90;1.00;;;;;;2279922;61;1613;-88
2022/05/19 06:23:21;1084532.00;3.62;1882.78;0.00;0.00;0.62;;;;;35.10;1.00;;;;;;2277978;61;1844;-89
2022/05/19 06:28:21;519250.00;1.73;894.97;0.00;0.00;0.62;;;;;35.20;1.00;;;;;;2273452;61;1365;-88
2022/05/19 06:30:48;166321.00;0.55;287.93;0.00;0.00;0.62;;;;;35.20;1.00;;;;;;2272129;61;2252;-90
2022/05/19 06:33:18;303306.00;1.01;523.60;0.00;0.00;0.62;;;;;35.10;1.00;;;;;;2271935;61;1979;-90
2022/05/19 06:38:37;1006074.00;3.35;1743.23;208997.00;0.70;361.41;;;;;35.60;1.00;;;;;;2273574;61;1428;-89
2022/05/19 06:46:11;842939.00;2.81;1456.11;98880.00;0.33;171.64;;;;;36.00;1.00;;;;;;2273882;61;1427;-88
2022/05/19 06:51:14;961467.00;3.20;1664.34;0.00;0.00;0.62;;;;;35.70;1.00;;;;;;2278428;61;1181;-88
2022/05/19 06:53:46;201953.00;0.67;349.29;0.00;0.00;0.62;;;;;35.40;1.00;;;;;;2276517;61;1919;-88
2022/05/19 06:56:15;89125.00;0.30;154.80;0.00;0.00;0.62;;;;;35.80;1.00;;;;;;2276884;61;1436;-88
2022/05/19 07:01:24;0.00;0.00;0.62;0.00;0.00;0.62;;;;;36.70;1.00;;;;;;2276823;61;1267;-89
2022/05/19 07:03:53;141776.00;0.47;245.63;0.00;0.00;0.62;;;;;37.20;1.00;;;;;;2276744;61;1696;-90
2022/05/19 07:06:22;102280.00;0.34;177.51;0.00;0.00;0.62;;;;;36.50;1.00;;;;;;2276852;61;1616;-89
2022/05/19 07:08:56;450851.00;1.50;777.25;0.00;0.00;0.62;;;;;36.70;1.00;;;;;;2276689;61;1511;-89
2022/05/19 07:11:26;161139.00;0.54;279.00;0.00;0.00;0.62;;;;;36.70;1.00;;;;;;2276759;61;1029;-88
2022/05/19 07:13:54;251419.00;0.84;434.39;5236.00;0.02;9.69;;;;;37.20;1.00;;;;;;2276668;61;1932;-90
2022/05/19 07:16:25;192344.00;0.64;332.74;0.00;0.00;0.62;;;;;36.80;1.00;;;;;;2276691;61;1030;-90
2022/05/19 07:20:43;10182.00;0.03;18.26;0.00;0.00;0.62;;;;;37.50;1.00;;;;;;2276604;61;1513;-89
2022/05/19 07:21:48;19488.00;0.06;34.38;0.00;0.00;0.62;;;;;37.40;1.00;;;;;;2276690;61;1328;-89
2022/05/19 07:26:55;293735.00;0.98;507.15;0.00;0.00;0.62;;;;;37.90;1.00;;;;;;2280972;56;1696;-88
2022/05/19 07:29:23;170797.00;0.57;295.64;0.00;0.00;0.62;;;;;37.90;1.00;;;;;;2277413;61;1124;-90
2022/05/19 07:32:01;282467.00;0.94;487.78;0.00;0.00;0.62;;;;;38.00;1.00;;;;;;2276461;61;963;-89
2022/05/19 07:34:31;80584.00;0.27;140.05;0.00;0.00;0.62;;;;;37.90;1.00;;;;;;2272658;61;2006;-89
2022/05/19 07:37:04;152355.00;0.51;263.87;0.00;0.00;0.62;;;;;37.80;1.00;;;;;;2272501;61;1604;-90
2022/05/19 07:39:31;168980.00;0.56;292.51;0.00;0.00;0.62;;;;;37.60;1.00;;;;;;2272585;61;1220;-88
2022/05/19 07:42:00;158859.00;0.53;275.07;0.00;0.00;0.62;;;;;37.70;1.00;;;;;;2272590;61;1289;-88
2022/05/19 07:44:30;125301.00;0.42;217.23;0.00;0.00;0.62;;;;;38.00;1.00;;;;;;2272591;61;1692;-88
2022/05/19 07:47:01;121485.00;0.40;210.64;0.00;0.00;0.62;;;;;38.00;1.00;;;;;;2333358;55;3794;-88
2022/05/19 07:49:28;272166.00;0.91;470.07;16348.00;0.05;28.95;;;;;37.80;1.00;;;;;;2280730;61;999;-89
2022/05/19 07:51:55;142983.00;0.48;247.71;0.00;0.00;0.62;;;;;37.80;1.00;;;;;;2280691;61;1036;-88
2022/05/19 07:54:26;243507.00;0.81;420.78;0.00;0.00;0.62;;;;;38.10;1.00;;;;;;2276577;61;1920;-87
2022/05/19 07:56:53;12157.00;0.04;21.69;0.00;0.00;0.62;;;;;37.40;1.00;;;;;;2276599;61;2405;-88
2022/05/19 07:59:25;229571.00;0.77;396.81;0.00;0.00;0.62;;;;;37.60;1.00;;;;;;2276585;61;1027;-89
2022/05/19 08:01:52;314600.00;1.05;543.02;0.00;0.00;0.62;;;;;37.80;1.00;;;;;;2276627;61;1392;-90
2022/05/19 08:06:53;685370.00;2.28;1181.88;44175.00;0.15;77.11;;;;;37.10;1.00;;;;;;2274332;61;1344;-88
2022/05/19 08:12:07;0.00;0.00;0.62;0.00;0.00;0.62;;;;;37.10;1.00;;;;;;2272530;61;1434;-90
2022/05/19 08:17:21;35048.00;0.12;61.32;0.00;0.00;0.62;;;;;37.50;1.00;;;;;;2272527;61;750;-89
2022/05/19 08:19:48;13303.00;0.04;23.67;0.00;0.00;0.62;;;;;36.80;1.00;;;;;;2272334;61;1110;-88
2022/05/19 08:29:49;561853.00;1.87;968.40;0.00;0.00;0.62;;;;;36.60;1.00;;;;;;2278350;61;1411;-89
2022/05/19 08:37:21;411648.00;1.37;709.83;72042.00;0.24;125.29;;;;;35.50;1.00;;;;;;1435207;40;3244;-87
2022/05/19 08:39:49;271710.00;0.91;469.28;72145.00;0.24;125.47;;;;;35.60;1.00;;;;;;2276415;61;922;-89
2022/05/19 08:42:18;177775.00;0.59;307.66;72443.00;0.24;125.98;;;;;35.10;1.00;;;;;;2288768;55;3824;-89
2022/05/19 08:47:21;526941.00;1.76;908.22;30494.00;0.10;53.44;;;;;34.50;1.00;;;;;;2328650;40;3444;-88
2022/05/19 09:02:35;329795.00;1.10;569.13;0.00;0.00;0.62;;;;;35.60;1.00;;;;;;2290959;40;3502;-90
2022/05/19 09:07:58;621724.00;2.07;1071.75;0.00;0.00;0.62;;;;;35.10;1.00;;;;;;2094147;56;3552;-89
2022/05/19 09:10:44;27902.00;0.09;48.95;0.00;0.00;0.62;;;;;34.80;1.00;;;;;;2289157;39;3613;-88
2022/05/19 09:13:24;84921.00;0.28;147.54;0.00;0.00;0.62;;;;;35.20;1.00;;;;;;2280294;61;2000;-90
2022/05/19 09:15:52;230641.00;0.77;398.65;62441.00;0.21;108.70;;;;;35.60;1.00;;;;;;2280127;61;1295;-90
2022/05/19 09:26:12;422209.00;1.41;727.99;0.00;0.00;0.62;;;;;33.90;1.00;;;;;;2269872;61;1456;-88
2022/05/19 09:28:39;970272.00;3.23;1679.89;293512.00;0.98;506.77;;;;;34.40;1.00;;;;;;2268118;61;1448;-90
2022/05/19 09:31:06;311545.00;1.04;537.77;75848.00;0.25;131.86;;;;;34.80;1.00;;;;;;2268301;61;1738;-89
2022/05/19 09:33:37;363988.00;1.21;627.90;80988.00;0.27;140.74;;;;;35.20;1.00;;;;;;2280343;55;3764;-89
2022/05/19 09:36:11;24771.00;0.08;43.53;0.00;0.00;0.62;;;;;35.00;1.00;;;;;;2280418;61;1588;-87
2022/05/19 09:38:44;209024.00;0.70;361.46;40530.00;0.14;70.81;;;;;35.00;1.00;;;;;;2284992;56;3789;-87
2022/05/19 09:43:52;191152.00;0.64;330.69;0.00;0.00;0.62;;;;;34.70;1.00;;;;;;2273615;61;1404;-88
2022/05/19 09:46:19;236072.00;0.79;407.99;0.00;0.00;0.62;;;;;34.70;1.00;;;;;;2302232;56;3749;-88
2022/05/19 09:51:20;319617.00;1.07;551.64;0.00;0.00;0.62;;;;;35.10;1.00;;;;;;2274150;61;1246;-89
2022/05/19 09:53:52;161356.00;0.54;279.38;0.00;0.00;0.62;;;;;35.10;1.00;;;;;;2272086;61;1929;-89
2022/05/19 09:59:06;381879.00;1.27;658.66;21673.00;0.07;38.17;;;;;35.10;1.00;;;;;;2274705;61;1304;-88
2022/05/19 10:01:39;111213.00;0.37;192.92;0.00;0.00;0.62;;;;;35.10;1.00;;;;;;2272888;61;394;-89
2022/05/19 10:04:10;63910.00;0.21;111.24;0.00;0.00;0.62;;;;;35.10;1.00;;;;;;2272770;61;1352;-88
2022/05/19 10:06:41;113252.00;0.38;196.44;0.00;0.00;0.62;;;;;35.20;1.00;;;;;;2272090;61;1023;-87
2022/05/19 10:09:13;134479.00;0.45;233.05;34737.00;0.12;60.78;;;;;35.20;1.00;;;;;;2272053;61;1314;-88
2022/05/19 10:11:52;65800.00;0.22;114.50;0.00;0.00;0.62;;;;;35.50;1.00;;;;;;2272124;61;1240;-88
2022/05/19 10:14:26;76183.00;0.25;132.44;0.00;0.00;0.62;;;;;35.20;1.00;;;;;;2272039;61;2005;-87
2022/05/19 10:17:05;109031.00;0.36;189.16;0.00;0.00;0.62;;;;;35.40;1.00;;;;;;2284119;55;3725;-89
2022/05/19 10:19:50;26670.00;0.09;46.82;0.00;0.00;0.62;;;;;35.50;1.00;;;;;;2280319;61;919;-87
2022/05/19 10:22:43;134279.00;0.45;232.71;0.00;0.00;0.62;;;;;35.20;1.00;;;;;;2289907;39;3625;-88
2022/05/19 10:25:24;480109.00;1.60;827.59;92084.00;0.31;159.91;;;;;35.20;1.00;;;;;;2276055;61;1069;-88
2022/05/19 10:31:06;302109.00;1.01;521.55;66911.00;0.22;116.42;;;;;35.50;1.00;;;;;;2276856;61;699;-89
2022/05/19 10:33:48;143704.00;0.48;248.96;0.00;0.00;0.62;;;;;35.20;1.00;;;;;;2276764;61;2024;-87
2022/05/19 10:36:24;0.00;0.00;0.62;0.00;0.00;0.62;;;;;35.60;1.00;;;;;;2276884;61;995;-90
2022/05/19 10:39:11;275479.00;0.92;475.76;45083.00;0.15;78.68;;;;;34.90;1.00;;;;;;2276818;61;1065;-88
2022/05/19 10:41:52;120028.00;0.40;208.13;16604.00;0.06;29.39;;;;;34.50;1.00;;;;;;2276963;61;968;-88
2022/05/19 10:44:40;131870432.00;439.57;92921088.00;0.00;0.00;0.62;;;;;35.20;1.00;;;;;;2276836;61;1438;-89
2022/05/19 10:47:22;343571.00;1.15;592.81;64318.00;0.21;111.94;;;;;35.60;1.00;;;;;;2276836;61;1591;-88
2022/05/19 10:50:07;263584.00;0.88;455.31;64540.00;0.22;112.32;;;;;35.40;1.00;;;;;;2276825;61;1058;-87
2022/05/19 10:52:54;396289.00;1.32;683.43;118392.00;0.39;205.31;;;;;35.40;1.00;;;;;;2276812;61;1387;-89
2022/05/19 10:55:28;172022.00;0.57;297.75;61747.00;0.21;107.50;;;;;35.70;1.00;;;;;;2276888;61;2007;-88
2022/05/19 10:58:09;173595.00;0.58;300.46;54846.00;0.18;95.57;;;;;35.60;1.00;;;;;;2276827;61;1609;-88
2022/05/19 11:00:54;280904.00;0.94;485.09;0.00;0.00;0.62;;;;;35.30;1.00;;;;;;2292856;55;3739;-88
2022/05/19 11:04:00;9477.00;0.03;17.04;0.00;0.00;0.62;;;;;34.30;1.00;;;;;;2309984;55;3770;-87
2022/05/19 11:09:03;187592.00;0.63;324.56;0.00;0.00;0.62;;;;;33.80;1.00;;;;;;2275163;61;1320;-90
2022/05/19 11:11:49;52451.00;0.17;91.42;0.00;0.00;0.62;;;;;33.50;1.00;;;;;;2272502;61;1490;-88
2022/05/19 11:14:39;111409.00;0.37;193.26;0.00;0.00;0.62;;;;;33.60;1.00;;;;;;2272633;61;1907;-88
2022/05/19 11:19:46;737886.00;2.46;1273.00;92679.00;0.31;160.93;;;;;34.40;1.00;;;;;;2273955;61;1359;-89
2022/05/19 11:22:16;407378.00;1.36;702.49;118974.00;0.40;206.31;;;;;34.80;1.00;;;;;;2272530;61;1679;-88
2022/05/19 11:30:15;631335.00;2.10;1088.36;64900.00;0.22;112.95;;;;;35.30;1.00;;;;;;2275280;61;1330;-88
2022/05/19 11:32:43;179560.00;0.60;310.73;58969.00;0.20;102.69;;;;;35.50;1.00;;;;;;2273367;61;1227;-88
2022/05/19 11:35:20;193668.00;0.65;335.02;0.00;0.00;0.62;;;;;35.50;1.00;;;;;;2272481;61;2006;-90
2022/05/19 11:37:55;238869.00;0.80;412.81;89777.00;0.30;155.92;;;;;35.40;1.00;;;;;;2272558;61;1011;-89
2022/05/19 11:40:31;488439.00;1.63;841.92;108738.00;0.36;188.65;;;;;35.30;1.00;;;;;;2272471;61;1638;-89
2022/05/19 11:45:38;582402.00;1.94;1003.84;62086.00;0.21;108.08;;;;;35.40;1.00;;;;;;2273940;61;1279;-89
2022/05/19 11:56:58;486908.00;1.62;839.29;44677.00;0.15;77.98;;;;;35.10;1.00;;;;;;2272726;61;678;-88
2022/05/19 11:59:26;237935.00;0.79;411.20;57351.00;0.19;99.90;;;;;35.10;1.00;;;;;;2272684;61;1741;-91
2022/05/19 12:01:54;224308.00;0.75;387.76;68175.00;0.23;118.61;;;;;35.20;1.00;;;;;;2272672;61;1097;-89
2022/05/19 12:04:28;167968.00;0.56;290.77;59633.00;0.20;103.84;;;;;35.40;1.00;;;;;;2272472;61;2193;-89
2022/05/19 12:07:05;191904.00;0.64;331.99;58696.00;0.20;102.22;;;;;35.60;1.00;;;;;;2272658;61;1060;-89
2022/05/19 12:09:41;397436.00;1.32;685.40;77920.00;0.26;135.44;;;;;35.80;1.00;;;;;;2272609;61;1698;-90
2022/05/19 12:12:20;331091.00;1.10;571.36;61691.00;0.21;107.40;;;;;35.80;1.00;;;;;;2272385;61;1430;-89
2022/05/19 12:15:03;200663.00;0.67;347.06;76757.00;0.26;133.44;;;;;35.50;1.00;;;;;;2272466;61;1986;-87
2022/05/19 12:17:33;1033070.00;3.44;1791.13;100411.00;0.33;174.28;;;;;35.30;1.00;;;;;;2272516;61;1260;-89
2022/05/19 12:20:03;894683.00;2.98;1546.78;138865.00;0.46;240.61;;;;;35.20;1.00;;;;;;2272464;61;1133;-88
2022/05/19 12:25:16;724564.00;2.42;1249.86;94574.00;0.32;164.21;;;;;34.50;1.00;;;;;;2274217;61;1380;-87
2022/05/19 12:27:53;203012.00;0.68;351.11;63328.00;0.21;110.23;;;;;34.20;1.00;;;;;;2272607;61;918;-87
2022/05/19 12:33:25;586670.00;1.96;1011.21;46651.00;0.16;81.39;;;;;34.10;1.00;;;;;;2303641;55;3758;-88
2022/05/19 12:35:56;350142.00;1.17;604.11;104009.00;0.35;180.49;;;;;34.50;1.00;;;;;;2280389;61;1926;-87
2022/05/19 12:38:33;339107.00;1.13;585.14;68135.00;0.23;118.54;;;;;34.70;1.00;;;;;;2280559;61;1113;-88
2022/05/19 12:41:03;462920.00;1.54;798.01;63278.00;0.21;110.14;;;;;34.90;1.00;;;;;;2280557;61;955;-87
2022/05/19 12:43:40;125642.00;0.42;217.81;0.00;0.00;0.62;;;;;35.00;1.00;;;;;;2280530;61;1295;-89
2022/05/19 12:46:10;66915.00;0.22;116.43;0.00;0.00;0.62;;;;;35.20;1.00;;;;;;2280552;61;1018;-88
2022/05/19 12:48:51;54870.00;0.18;95.61;12474.00;0.04;22.24;;;;;35.30;1.00;;;;;;2280629;61;1096;-89
2022/05/19 12:51:27;3021.00;0.01;5.86;0.00;0.00;0.62;;;;;35.50;1.00;;;;;;2280427;61;969;-88
2022/05/19 12:54:05;101576.00;0.34;176.29;0.00;0.00;0.62;;;;;35.40;1.00;;;;;;2280528;61;2013;-87
2022/05/19 12:57:22;97402.00;0.32;169.09;0.00;0.00;0.62;;;;;35.40;1.00;;;;;;2280580;61;1076;-87
2022/05/19 13:00:03;333102.00;1.11;574.82;82159.00;0.27;142.77;;;;;35.50;1.00;;;;;;2280645;61;1170;-89
2022/05/19 13:02:34;166601.00;0.56;288.41;47914.00;0.16;83.58;;;;;35.60;1.00;;;;;;2280629;61;1470;-88
2022/05/19 13:05:06;93353.00;0.31;162.10;0.00;0.00;0.62;;;;;35.20;1.00;;;;;;2280584;61;1708;-86
2022/05/19 13:07:38;94023.00;0.31;163.25;12376.00;0.04;22.07;;;;;35.00;1.00;;;;;;2280579;61;1648;-88
2022/05/19 13:10:14;151298.00;0.50;262.04;0.00;0.00;0.62;;;;;35.00;1.00;;;;;;2280539;61;1046;-89
2022/05/19 13:12:56;234274.00;0.78;404.90;36307.00;0.12;63.50;;;;;35.30;1.00;;;;;;2280553;61;1472;-88
2022/05/19 13:15:28;63975.00;0.21;111.35;0.00;0.00;0.62;;;;;35.10;1.00;;;;;;2280517;61;1982;-88
2022/05/19 13:17:58;0.00;0.00;0.62;0.00;0.00;0.62;;;;;35.00;1.00;;;;;;2280542;61;915;-89
2022/05/19 13:20:29;107505.00;0.36;186.52;37487.00;0.12;65.54;;;;;34.90;1.00;;;;;;2280464;61;2175;-89
2022/05/19 13:23:00;0.00;0.00;0.62;0.00;0.00;0.62;;;;;34.90;1.00;;;;;;2280432;61;1362;-88
2022/05/19 13:25:28;37826.00;0.13;66.13;0.00;0.00;0.62;;;;;35.00;1.00;;;;;;2280561;61;1513;-90
2022/05/19 13:30:57;0.00;0.00;0.62;0.00;0.00;0.62;;;;;35.10;1.00;;;;;;2280468;61;638;-87
2022/05/19 13:33:26;187041.00;0.62;323.61;0.00;0.00;0.62;;;;;35.10;1.00;;;;;;2280327;61;1680;-88
2022/05/19 13:36:01;293520.00;0.98;506.78;70909.00;0.24;123.33;;;;;34.80;1.00;;;;;;2280485;61;1940;-87
2022/05/19 13:38:28;23748.00;0.08;41.76;0.00;0.00;0.62;;;;;34.70;1.00;;;;;;2280507;61;1685;-87
2022/05/19 13:40:57;116694.00;0.39;202.38;51873.00;0.17;90.43;;;;;35.10;1.00;;;;;;2280456;61;1103;-89
2022/05/19 13:43:32;19861.00;0.07;35.03;0.00;0.00;0.62;;;;;34.90;1.00;;;;;;2280255;61;1286;-88
2022/05/19 13:46:01;200238.00;0.67;346.33;0.00;0.00;0.62;;;;;34.70;1.00;;;;;;2280358;61;1094;-87
2022/05/19 13:48:41;0.00;0.00;0.62;0.00;0.00;0.62;;;;;34.90;1.00;;;;;;2280418;61;1028;-88
2022/05/19 13:51:17;0.00;0.00;0.62;0.00;0.00;0.62;;;;;34.90;1.00;;;;;;2280417;61;1687;-88
2022/05/19 13:53:47;114669.00;0.38;198.89;0.00;0.00;0.62;;;;;34.70;1.00;;;;;;2280231;61;1318;-88
2022/05/19 13:56:14;80713.00;0.27;140.27;0.00;0.00;0.62;;;;;35.00;1.00;;;;;;2280278;61;2018;-88
2022/05/19 13:58:50;136025.00;0.45;235.72;0.00;0.00;0.62;;;;;35.00;1.00;;;;;;2280431;61;1020;-88
2022/05/19 14:01:26;120353.00;0.40;208.69;0.00;0.00;0.62;;;;;35.20;1.00;;;;;;2280202;61;1520;-88
2022/05/19 14:03:57;132469.00;0.44;229.59;0.00;0.00;0.62;;;;;35.20;1.00;;;;;;2280309;61;1361;-88
2022/05/19 14:06:28;139015.00;0.46;240.87;0.00;0.00;0.62;;;;;35.10;1.00;;;;;;2280317;61;924;-88
2022/05/19 14:08:56;157927.00;0.53;273.47;64087.00;0.21;111.54;;;;;34.80;1.00;;;;;;2280341;61;1012;-87
2022/05/19 14:11:23;45136.00;0.15;78.77;0.00;0.00;0.62;;;;;34.40;1.00;;;;;;2280229;61;1062;-89
2022/05/19 14:13:55;99655.00;0.33;172.98;0.00;0.00;0.62;;;;;33.90;1.00;;;;;;2280244;61;1296;-89
2022/05/19 14:16:25;73550.00;0.25;127.89;0.00;0.00;0.62;;;;;33.90;1.00;;;;;;2280252;61;1923;-87
2022/05/19 14:18:58;88095.00;0.29;153.02;18416.00;0.06;32.53;;;;;33.80;1.00;;;;;;2280357;61;1121;-88
2022/05/19 14:21:26;9563.00;0.03;17.19;0.00;0.00;0.62;;;;;33.60;1.00;;;;;;2280342;61;917;-88
2022/05/19 14:23:58;234780.00;0.78;405.77;21958.00;0.07;38.66;;;;;33.50;1.00;;;;;;2280325;61;1393;-89
2022/05/19 14:26:29;176324.00;0.59;305.16;0.00;0.00;0.62;;;;;33.30;1.00;;;;;;2280300;61;1459;-87
2022/05/19 14:29:02;338503.00;1.13;584.10;22321.00;0.07;39.29;;;;;33.20;1.00;;;;;;2280322;61;1109;-89
2022/05/19 14:31:35;29999.00;0.10;52.58;0.00;0.00;0.62;;;;;33.20;1.00;;;;;;2280341;61;1046;-88
2022/05/19 14:34:12;79650.00;0.27;138.43;0.00;0.00;0.62;;;;;32.90;1.00;;;;;;2280226;61;1805;-89
2022/05/19 14:36:43;162043.00;0.54;280.56;0.00;0.00;0.62;;;;;31.90;1.00;;;;;;2280221;61;1049;-89
2022/05/19 14:44:13;647370.00;2.16;1116.09;0.00;0.00;0.62;;;;;30.50;1.00;;;;;;2286700;56;3690;-88
2022/05/19 14:46:45;223784.00;0.75;386.85;0.00;0.00;0.62;;;;;30.00;1.00;;;;;;2276899;61;391;-91
2022/05/19 14:59:17;1190348.00;3.97;2072.78;51495.00;0.17;89.77;;;;;30.30;1.00;;;;;;2334497;39;3484;-88
2022/05/19 15:09:16;1202067.00;4.01;2093.96;0.00;0.00;0.62;;;;;31.70;1.00;;;;;;1967835;40;3498;-91
2022/05/19 15:11:43;353263.00;1.18;609.47;0.00;0.00;0.62;;;;;32.00;1.00;;;;;;2326774;56;3847;-89
2022/05/19 15:16:41;1068664.00;3.56;1854.47;0.00;0.00;0.62;;;;;32.10;1.00;;;;;;1941475;56;3587;-88
2022/05/19 15:19:17;373785.00;1.25;644.74;0.00;0.00;0.62;;;;;32.10;1.00;;;;;;2341136;40;3569;-89
2022/05/19 15:21:46;316132.00;1.05;545.65;0.00;0.00;0.62;;;;;32.00;1.00;;;;;;2280872;61;961;-88
2022/05/19 15:24:13;107060.00;0.36;185.76;0.00;0.00;0.62;;;;;32.00;1.00;;;;;;2326212;39;3828;-89
2022/05/19 15:26:40;115300.00;0.38;199.97;0.00;0.00;0.62;;;;;32.20;1.00;;;;;;2276617;61;1666;-88
2022/05/19 15:31:37;827056.00;2.76;1428.35;0.00;0.00;0.62;;;;;31.80;1.00;;;;;;2320642;55;3644;-87
2022/05/19 15:54:03;938369.00;3.13;1623.61;27470.00;0.09;48.20;;;;;32.80;1.00;;;;;;1547298;40;3406;-88
2022/05/19 15:56:34;118642.00;0.40;205.74;0.00;0.00;0.62;;;;;32.90;1.00;;;;;;2276502;61;1940;-89
2022/05/19 15:59:02;594006.00;1.98;1023.87;104561.00;0.35;181.44;;;;;32.80;1.00;;;;;;2282668;39;3561;-89
2022/05/19 16:01:31;293486.00;0.98;506.72;60335.00;0.20;105.06;;;;;32.60;1.00;;;;;;2281216;61;1551;-90
2022/05/19 16:19:13;93475.00;0.31;162.31;0.00;0.00;0.62;;;;;32.00;1.00;;;;;;2474039;40;1670;-89
2022/05/19 16:21:41;504993.00;1.68;870.42;86795.00;0.29;150.77;;;;;32.20;1.00;;;;;;2280468;61;981;-88
2022/05/19 16:24:08;105912.00;0.35;183.78;0.00;0.00;0.62;;;;;32.30;1.00;;;;;;2280554;61;1403;-88
2022/05/19 16:26:35;238129.00;0.79;411.53;35804.00;0.12;62.63;;;;;32.40;1.00;;;;;;2280668;61;1584;-89
2022/05/19 16:29:02;477481.00;1.59;823.06;55539.00;0.19;96.76;;;;;32.20;1.00;;;;;;2280636;61;1033;-87
2022/05/19 16:31:30;346527.00;1.16;597.89;107580.00;0.36;186.65;;;;;32.20;1.00;;;;;;2280603;61;1179;-88
2022/05/19 16:33:57;0.00;0.00;0.62;0.00;0.00;0.62;;;;;31.80;1.00;;;;;;2280566;61;1359;-87
2022/05/19 16:36:26;54263.00;0.18;94.56;0.00;0.00;0.62;;;;;31.30;1.00;;;;;;2280496;61;2006;-88
2022/05/19 16:38:53;339209.00;1.13;585.31;32565.00;0.11;57.02;;;;;31.20;1.00;;;;;;2280561;61;1566;-90
2022/05/19 16:43:54;298950.00;1.00;516.12;0.00;0.00;0.62;;;;;31.10;1.00;;;;;;2274100;61;1395;-88
2022/05/19 16:48:54;354154.00;1.18;611.00;0.00;0.00;0.62;;;;;31.30;1.00;;;;;;2274386;61;1336;-89
2022/05/19 16:51:22;232957.00;0.78;402.64;63638.00;0.21;110.77;;;;;31.40;1.00;;;;;;2272494;61;1790;-88
2022/05/19 16:59:22;159825.00;0.53;276.74;0.00;0.00;0.62;;;;;31.10;1.00;;;;;;2324214;56;3832;-89
2022/05/19 17:01:53;168235.00;0.56;291.23;0.00;0.00;0.62;;;;;31.20;1.00;;;;;;2276356;61;1543;-89
2022/05/19 17:06:53;696937.00;2.32;1201.93;109927.00;0.37;190.70;;;;;31.20;1.00;;;;;;2274139;61;1399;-89
2022/05/19 17:09:23;179205.00;0.60;310.12;0.00;0.00;0.62;;;;;31.00;1.00;;;;;;2272338;61;1037;-89
2022/05/19 17:11:52;664084.00;2.21;1145.01;50096.00;0.17;87.35;;;;;31.00;1.00;;;;;;2272302;61;1640;-89
2022/05/19 17:14:19;252208.00;0.84;435.75;0.00;0.00;0.62;;;;;30.80;1.00;;;;;;2272356;61;1365;-90
2022/05/19 17:16:50;252386.00;0.84;436.05;0.00;0.00;0.62;;;;;30.60;1.00;;;;;;2272328;61;2010;-88
2022/05/19 17:19:17;229589.00;0.77;396.84;15210.00;0.05;26.97;;;;;30.50;1.00;;;;;;2272362;61;921;-89
2022/05/19 17:21:44;195442.00;0.65;338.08;73691.00;0.25;128.14;;;;;30.40;1.00;;;;;;2272345;61;2076;-89
2022/05/19 17:24:11;21994.00;0.07;38.72;0.00;0.00;0.62;;;;;30.50;1.00;;;;;;2272402;61;1373;-89
2022/05/19 17:26:39;182513.00;0.61;315.82;0.00;0.00;0.62;;;;;30.50;1.00;;;;;;2272241;61;992;-88
2022/05/19 17:29:06;14425.00;0.05;25.61;0.00;0.00;0.62;;;;;30.50;1.00;;;;;;2272367;61;1109;-87
2022/05/19 17:31:34;131451.00;0.44;227.83;0.00;0.00;0.62;;;;;30.40;1.00;;;;;;2272381;61;940;-89
2022/05/19 17:34:01;126727.00;0.42;219.68;0.00;0.00;0.62;;;;;30.30;1.00;;;;;;2272293;61;1667;-88